sensor_id;sensor_type;location;lat;lon;timestamp;P1;durP1;ratioP1;P2;durP2;ratioP2
51214;SDS011;41093;47.444;19.134;2022-07-29T00:00:57;4.18;;;3.78;;
51214;SDS011;41093;47.444;19.134;2022-07-29T00:03:23;4.43;;;4.03;;
51214;SDS011;41093;47.444;19.134;2022-07-29T00:05:49;4.82;;;4.18;;
51214;SDS011;41093;47.444;19.134;2022-07-29T00:08:14;4.60;;;4.20;;
51214;SDS011;41093;47.444;19.134;2022-07-29T00:10:41;4.10;;;3.80;;
51214;SDS011;41093;47.444;19.134;2022-07-29T00:13:07;4.28;;;3.88;;
51214;SDS011;41093;47.444;19.134;2022-07-29T00:15:32;4.25;;;3.92;;
51214;SDS011;41093;47.444;19.134;2022-07-29T00:17:58;5.72;;;3.90;;
51214;SDS011;41093;47.444;19.134;2022-07-29T00:20:24;4.78;;;4.10;;
51214;SDS011;41093;47.444;19.134;2022-07-29T00:22:50;4.82;;;4.30;;
51214;SDS011;41093;47.444;19.134;2022-07-29T00:25:15;3.90;;;3.60;;
51214;SDS011;41093;47.444;19.134;2022-07-29T00:27:41;4.05;;;3.72;;
51214;SDS011;41093;47.444;19.134;2022-07-29T00:30:07;6.22;;;4.35;;
51214;SDS011;41093;47.444;19.134;2022-07-29T00:32:33;4.22;;;3.78;;
51214;SDS011;41093;47.444;19.134;2022-07-29T00:34:59;4.10;;;3.53;;
51214;SDS011;41093;47.444;19.134;2022-07-29T00:37:43;4.03;;;3.67;;
51214;SDS011;41093;47.444;19.134;2022-07-29T00:40:09;4.25;;;3.58;;
51214;SDS011;41093;47.444;19.134;2022-07-29T00:42:42;4.50;;;4.05;;
51214;SDS011;41093;47.444;19.134;2022-07-29T00:45:08;4.43;;;3.65;;
51214;SDS011;41093;47.444;19.134;2022-07-29T00:47:34;5.07;;;4.25;;
51214;SDS011;41093;47.444;19.134;2022-07-29T00:50:00;4.32;;;3.60;;
51214;SDS011;41093;47.444;19.134;2022-07-29T00:52:26;4.60;;;4.20;;
51214;SDS011;41093;47.444;19.134;2022-07-29T00:54:52;4.45;;;4.05;;
51214;SDS011;41093;47.444;19.134;2022-07-29T00:57:17;5.80;;;3.78;;
51214;SDS011;41093;47.444;19.134;2022-07-29T00:59:43;3.90;;;3.50;;
51214;SDS011;41093;47.444;19.134;2022-07-29T01:02:09;4.80;;;4.40;;
51214;SDS011;41093;47.444;19.134;2022-07-29T01:04:35;4.05;;;3.60;;
51214;SDS011;41093;47.444;19.134;2022-07-29T01:07:01;4.65;;;4.25;;
51214;SDS011;41093;47.444;19.134;2022-07-29T01:09:28;4.30;;;3.97;;
51214;SDS011;41093;47.444;19.134;2022-07-29T01:11:54;4.95;;;4.40;;
51214;SDS011;41093;47.444;19.134;2022-07-29T01:14:20;4.63;;;4.22;;
51214;SDS011;41093;47.444;19.134;2022-07-29T01:16:51;5.35;;;4.75;;
51214;SDS011;41093;47.444;19.134;2022-07-29T01:30:17;5.45;;;4.63;;
51214;SDS011;41093;47.444;19.134;2022-07-29T01:32:43;5.18;;;4.47;;
51214;SDS011;41093;47.444;19.134;2022-07-29T01:38:08;5.13;;;4.38;;
51214;SDS011;41093;47.444;19.134;2022-07-29T01:40:54;5.25;;;4.85;;
51214;SDS011;41093;47.444;19.134;2022-07-29T01:43:53;6.60;;;4.93;;
51214;SDS011;41093;47.444;19.134;2022-07-29T01:46:27;4.68;;;4.28;;
51214;SDS011;41093;47.444;19.134;2022-07-29T01:49:08;7.43;;;5.25;;
51214;SDS011;41093;47.444;19.134;2022-07-29T01:51:57;6.80;;;5.32;;
51214;SDS011;41093;47.444;19.134;2022-07-29T01:54:42;5.10;;;4.60;;
51214;SDS011;41093;47.444;19.134;2022-07-29T01:57:14;6.00;;;5.03;;
51214;SDS011;41093;47.444;19.134;2022-07-29T01:59:45;7.20;;;5.15;;
51214;SDS011;41093;47.444;19.134;2022-07-29T02:02:13;7.35;;;5.35;;
51214;SDS011;41093;47.444;19.134;2022-07-29T02:04:41;4.80;;;4.40;;
51214;SDS011;41093;47.444;19.134;2022-07-29T02:07:11;5.50;;;4.97;;
51214;SDS011;41093;47.444;19.134;2022-07-29T02:09:40;5.43;;;4.93;;
51214;SDS011;41093;47.444;19.134;2022-07-29T02:12:07;5.65;;;5.05;;
51214;SDS011;41093;47.444;19.134;2022-07-29T02:14:36;5.15;;;4.75;;
51214;SDS011;41093;47.444;19.134;2022-07-29T02:17:05;5.60;;;5.20;;
51214;SDS011;41093;47.444;19.134;2022-07-29T02:19:31;6.68;;;5.50;;
51214;SDS011;41093;47.444;19.134;2022-07-29T02:21:58;5.95;;;5.35;;
51214;SDS011;41093;47.444;19.134;2022-07-29T02:24:25;6.32;;;5.80;;
51214;SDS011;41093;47.444;19.134;2022-07-29T02:26:52;6.20;;;5.10;;
51214;SDS011;41093;47.444;19.134;2022-07-29T02:29:23;7.20;;;5.50;;
51214;SDS011;41093;47.444;19.134;2022-07-29T02:31:51;5.80;;;5.22;;
51214;SDS011;41093;47.444;19.134;2022-07-29T02:34:19;5.85;;;5.32;;
51214;SDS011;41093;47.444;19.134;2022-07-29T02:36:46;6.45;;;5.85;;
51214;SDS011;41093;47.444;19.134;2022-07-29T02:39:13;6.10;;;5.60;;
51214;SDS011;41093;47.444;19.134;2022-07-29T02:41:47;7.25;;;6.55;;
51214;SDS011;41093;47.444;19.134;2022-07-29T02:44:21;9.20;;;6.78;;
51214;SDS011;41093;47.444;19.134;2022-07-29T02:46:58;6.72;;;6.05;;
51214;SDS011;41093;47.444;19.134;2022-07-29T02:49:41;6.60;;;6.00;;
51214;SDS011;41093;47.444;19.134;2022-07-29T02:52:26;6.70;;;6.10;;
51214;SDS011;41093;47.444;19.134;2022-07-29T02:54:58;7.07;;;6.25;;
51214;SDS011;41093;47.444;19.134;2022-07-29T02:57:51;7.53;;;6.85;;
51214;SDS011;41093;47.444;19.134;2022-07-29T03:00:25;7.80;;;7.00;;
51214;SDS011;41093;47.444;19.134;2022-07-29T03:02:55;7.47;;;6.70;;
51214;SDS011;41093;47.444;19.134;2022-07-29T03:05:24;7.00;;;6.20;;
51214;SDS011;41093;47.444;19.134;2022-07-29T03:07:57;7.50;;;6.40;;
51214;SDS011;41093;47.444;19.134;2022-07-29T03:10:27;6.55;;;5.97;;
51214;SDS011;41093;47.444;19.134;2022-07-29T03:12:54;7.20;;;6.60;;
51214;SDS011;41093;47.444;19.134;2022-07-29T03:15:20;8.18;;;6.20;;
51214;SDS011;41093;47.444;19.134;2022-07-29T03:17:47;7.82;;;7.00;;
51214;SDS011;41093;47.444;19.134;2022-07-29T03:20:14;7.82;;;7.13;;
51214;SDS011;41093;47.444;19.134;2022-07-29T03:22:41;9.00;;;6.70;;
51214;SDS011;41093;47.444;19.134;2022-07-29T03:25:11;7.50;;;6.80;;
51214;SDS011;41093;47.444;19.134;2022-07-29T03:27:40;6.40;;;5.47;;
51214;SDS011;41093;47.444;19.134;2022-07-29T03:30:06;8.32;;;6.70;;
51214;SDS011;41093;47.444;19.134;2022-07-29T03:32:33;6.90;;;6.35;;
51214;SDS011;41093;47.444;19.134;2022-07-29T03:34:59;6.80;;;6.20;;
51214;SDS011;41093;47.444;19.134;2022-07-29T03:37:25;7.18;;;6.20;;
51214;SDS011;41093;47.444;19.134;2022-07-29T03:39:52;7.25;;;6.28;;
51214;SDS011;41093;47.444;19.134;2022-07-29T03:42:21;7.03;;;6.32;;
51214;SDS011;41093;47.444;19.134;2022-07-29T03:44:55;6.18;;;5.32;;
51214;SDS011;41093;47.444;19.134;2022-07-29T03:47:24;6.90;;;6.10;;
51214;SDS011;41093;47.444;19.134;2022-07-29T03:49:54;8.93;;;6.32;;
51214;SDS011;41093;47.444;19.134;2022-07-29T03:52:25;6.55;;;6.05;;
51214;SDS011;41093;47.444;19.134;2022-07-29T03:54:51;6.50;;;6.00;;
51214;SDS011;41093;47.444;19.134;2022-07-29T03:57:18;6.18;;;5.65;;
51214;SDS011;41093;47.444;19.134;2022-07-29T03:59:48;6.90;;;5.65;;
51214;SDS011;41093;47.444;19.134;2022-07-29T04:02:16;5.75;;;5.28;;
51214;SDS011;41093;47.444;19.134;2022-07-29T04:04:42;7.32;;;5.68;;
51214;SDS011;41093;47.444;19.134;2022-07-29T04:07:11;5.93;;;5.35;;
51214;SDS011;41093;47.444;19.134;2022-07-29T04:09:37;5.43;;;4.93;;
51214;SDS011;41093;47.444;19.134;2022-07-29T04:12:03;6.20;;;5.05;;
51214;SDS011;41093;47.444;19.134;2022-07-29T04:14:31;7.00;;;4.82;;
51214;SDS011;41093;47.444;19.134;2022-07-29T04:16:59;6.50;;;5.07;;
51214;SDS011;41093;47.444;19.134;2022-07-29T04:19:25;8.55;;;4.95;;
51214;SDS011;41093;47.444;19.134;2022-07-29T04:21:51;6.18;;;4.45;;
51214;SDS011;41093;47.444;19.134;2022-07-29T04:24:17;5.68;;;4.68;;
51214;SDS011;41093;47.444;19.134;2022-07-29T04:26:44;5.00;;;4.50;;
51214;SDS011;41093;47.444;19.134;2022-07-29T04:29:11;4.63;;;4.15;;
51214;SDS011;41093;47.444;19.134;2022-07-29T04:31:39;5.07;;;4.57;;
51214;SDS011;41093;47.444;19.134;2022-07-29T04:34:05;7.03;;;4.50;;
51214;SDS011;41093;47.444;19.134;2022-07-29T04:36:31;7.25;;;4.32;;
51214;SDS011;41093;47.444;19.134;2022-07-29T04:38:57;4.95;;;4.20;;
51214;SDS011;41093;47.444;19.134;2022-07-29T04:41:23;4.63;;;4.20;;
51214;SDS011;41093;47.444;19.134;2022-07-29T04:43:49;9.15;;;4.35;;
51214;SDS011;41093;47.444;19.134;2022-07-29T04:46:15;4.80;;;4.13;;
51214;SDS011;41093;47.444;19.134;2022-07-29T04:48:41;5.25;;;3.90;;
51214;SDS011;41093;47.444;19.134;2022-07-29T04:51:06;5.53;;;4.20;;
51214;SDS011;41093;47.444;19.134;2022-07-29T04:53:32;4.22;;;3.85;;
51214;SDS011;41093;47.444;19.134;2022-07-29T04:55:58;5.35;;;4.20;;
51214;SDS011;41093;47.444;19.134;2022-07-29T04:58:24;4.60;;;3.90;;
51214;SDS011;41093;47.444;19.134;2022-07-29T05:00:50;3.80;;;3.50;;
51214;SDS011;41093;47.444;19.134;2022-07-29T05:03:16;4.50;;;3.70;;
51214;SDS011;41093;47.444;19.134;2022-07-29T05:05:42;3.88;;;3.45;;
51214;SDS011;41093;47.444;19.134;2022-07-29T05:08:08;4.68;;;3.60;;
51214;SDS011;41093;47.444;19.134;2022-07-29T05:10:34;6.57;;;3.45;;
51214;SDS011;41093;47.444;19.134;2022-07-29T05:13:06;5.80;;;3.95;;
51214;SDS011;41093;47.444;19.134;2022-07-29T05:15:35;3.70;;;3.40;;
51214;SDS011;41093;47.444;19.134;2022-07-29T05:18:02;4.15;;;3.75;;
51214;SDS011;41093;47.444;19.134;2022-07-29T05:20:28;4.70;;;3.58;;
51214;SDS011;41093;47.444;19.134;2022-07-29T05:22:56;5.68;;;3.92;;
51214;SDS011;41093;47.444;19.134;2022-07-29T05:25:22;5.45;;;3.17;;
51214;SDS011;41093;47.444;19.134;2022-07-29T05:27:49;5.47;;;3.72;;
51214;SDS011;41093;47.444;19.134;2022-07-29T05:30:15;3.38;;;3.08;;
51214;SDS011;41093;47.444;19.134;2022-07-29T05:32:40;3.95;;;3.67;;
51214;SDS011;41093;47.444;19.134;2022-07-29T05:35:06;3.60;;;3.30;;
51214;SDS011;41093;47.444;19.134;2022-07-29T05:37:33;3.95;;;3.30;;
51214;SDS011;41093;47.444;19.134;2022-07-29T05:39:59;3.53;;;3.30;;
51214;SDS011;41093;47.444;19.134;2022-07-29T05:42:25;3.90;;;3.65;;
51214;SDS011;41093;47.444;19.134;2022-07-29T05:44:51;4.13;;;3.55;;
51214;SDS011;41093;47.444;19.134;2022-07-29T05:47:17;4.95;;;3.60;;
51214;SDS011;41093;47.444;19.134;2022-07-29T05:49:43;3.97;;;3.33;;
51214;SDS011;41093;47.444;19.134;2022-07-29T05:52:09;4.70;;;3.50;;
51214;SDS011;41093;47.444;19.134;2022-07-29T05:54:35;3.83;;;3.53;;
51214;SDS011;41093;47.444;19.134;2022-07-29T05:57:01;3.92;;;3.63;;
51214;SDS011;41093;47.444;19.134;2022-07-29T05:59:28;4.70;;;3.45;;
51214;SDS011;41093;47.444;19.134;2022-07-29T06:01:54;4.80;;;4.38;;
51214;SDS011;41093;47.444;19.134;2022-07-29T06:04:19;4.00;;;3.60;;
51214;SDS011;41093;47.444;19.134;2022-07-29T06:06:45;4.13;;;3.78;;
51214;SDS011;41093;47.444;19.134;2022-07-29T06:09:11;5.32;;;4.05;;
51214;SDS011;41093;47.444;19.134;2022-07-29T06:11:37;6.60;;;3.83;;
51214;SDS011;41093;47.444;19.134;2022-07-29T06:14:02;4.28;;;3.97;;
51214;SDS011;41093;47.444;19.134;2022-07-29T06:16:28;11.23;;;4.18;;
51214;SDS011;41093;47.444;19.134;2022-07-29T06:18:54;4.47;;;3.90;;
51214;SDS011;41093;47.444;19.134;2022-07-29T06:21:20;3.67;;;3.38;;
51214;SDS011;41093;47.444;19.134;2022-07-29T06:23:46;5.15;;;4.35;;
51214;SDS011;41093;47.444;19.134;2022-07-29T06:26:12;4.65;;;3.97;;
51214;SDS011;41093;47.444;19.134;2022-07-29T06:28:38;5.35;;;4.80;;
51214;SDS011;41093;47.444;19.134;2022-07-29T06:31:04;6.32;;;4.45;;
51214;SDS011;41093;47.444;19.134;2022-07-29T06:33:30;4.78;;;4.30;;
51214;SDS011;41093;47.444;19.134;2022-07-29T06:35:56;5.43;;;3.70;;
51214;SDS011;41093;47.444;19.134;2022-07-29T06:38:22;6.57;;;5.35;;
51214;SDS011;41093;47.444;19.134;2022-07-29T06:40:48;3.95;;;3.65;;
51214;SDS011;41093;47.444;19.134;2022-07-29T06:43:31;4.55;;;4.15;;
51214;SDS011;41093;47.444;19.134;2022-07-29T06:46:07;5.30;;;4.43;;
51214;SDS011;41093;47.444;19.134;2022-07-29T06:48:34;4.60;;;4.30;;
51214;SDS011;41093;47.444;19.134;2022-07-29T06:51:01;4.45;;;4.00;;
51214;SDS011;41093;47.444;19.134;2022-07-29T06:53:28;4.13;;;3.70;;
51214;SDS011;41093;47.444;19.134;2022-07-29T06:55:54;4.63;;;4.15;;
51214;SDS011;41093;47.444;19.134;2022-07-29T06:58:20;4.63;;;4.22;;
51214;SDS011;41093;47.444;19.134;2022-07-29T07:00:49;3.97;;;3.67;;
51214;SDS011;41093;47.444;19.134;2022-07-29T07:03:15;4.38;;;3.92;;
51214;SDS011;41093;47.444;19.134;2022-07-29T07:05:42;4.50;;;4.10;;
51214;SDS011;41093;47.444;19.134;2022-07-29T07:08:08;4.20;;;3.90;;
51214;SDS011;41093;47.444;19.134;2022-07-29T07:10:34;4.00;;;3.70;;
51214;SDS011;41093;47.444;19.134;2022-07-29T07:13:00;4.35;;;3.90;;
51214;SDS011;41093;47.444;19.134;2022-07-29T07:15:27;4.75;;;4.35;;
51214;SDS011;41093;47.444;19.134;2022-07-29T07:17:53;4.15;;;3.78;;
51214;SDS011;41093;47.444;19.134;2022-07-29T07:20:18;4.70;;;4.28;;
51214;SDS011;41093;47.444;19.134;2022-07-29T07:22:44;4.70;;;4.00;;
51214;SDS011;41093;47.444;19.134;2022-07-29T07:25:11;4.43;;;4.03;;
51214;SDS011;41093;47.444;19.134;2022-07-29T07:27:37;4.78;;;4.38;;
51214;SDS011;41093;47.444;19.134;2022-07-29T07:30:03;4.70;;;4.15;;
51214;SDS011;41093;47.444;19.134;2022-07-29T07:32:31;4.60;;;4.20;;
51214;SDS011;41093;47.444;19.134;2022-07-29T07:35:00;4.55;;;4.22;;
51214;SDS011;41093;47.444;19.134;2022-07-29T07:37:26;5.28;;;4.47;;
51214;SDS011;41093;47.444;19.134;2022-07-29T07:39:52;4.95;;;4.13;;
51214;SDS011;41093;47.444;19.134;2022-07-29T07:42:19;6.95;;;4.60;;
51214;SDS011;41093;47.444;19.134;2022-07-29T07:44:45;5.30;;;4.25;;
51214;SDS011;41093;47.444;19.134;2022-07-29T07:47:13;4.43;;;3.95;;
51214;SDS011;41093;47.444;19.134;2022-07-29T07:49:39;5.15;;;4.10;;
51214;SDS011;41093;47.444;19.134;2022-07-29T07:52:04;4.45;;;4.03;;
51214;SDS011;41093;47.444;19.134;2022-07-29T07:54:30;4.97;;;4.38;;
51214;SDS011;41093;47.444;19.134;2022-07-29T07:56:56;4.47;;;4.07;;
51214;SDS011;41093;47.444;19.134;2022-07-29T07:59:22;4.50;;;4.20;;
51214;SDS011;41093;47.444;19.134;2022-07-29T08:01:48;4.93;;;4.53;;
51214;SDS011;41093;47.444;19.134;2022-07-29T08:04:15;4.40;;;4.13;;
51214;SDS011;41093;47.444;19.134;2022-07-29T08:06:40;4.35;;;3.95;;
51214;SDS011;41093;47.444;19.134;2022-07-29T08:09:06;5.72;;;4.70;;
51214;SDS011;41093;47.444;19.134;2022-07-29T08:11:32;5.15;;;4.65;;
51214;SDS011;41093;47.444;19.134;2022-07-29T08:13:58;9.48;;;5.18;;
51214;SDS011;41093;47.444;19.134;2022-07-29T08:16:26;5.93;;;5.45;;
51214;SDS011;41093;47.444;19.134;2022-07-29T08:18:53;5.55;;;5.05;;
51214;SDS011;41093;47.444;19.134;2022-07-29T08:21:22;5.30;;;4.90;;
51214;SDS011;41093;47.444;19.134;2022-07-29T08:23:49;6.40;;;5.95;;
51214;SDS011;41093;47.444;19.134;2022-07-29T08:26:17;5.28;;;4.90;;
51214;SDS011;41093;47.444;19.134;2022-07-29T08:28:44;4.90;;;4.60;;
51214;SDS011;41093;47.444;19.134;2022-07-29T08:31:14;4.50;;;4.30;;
51214;SDS011;41093;47.444;19.134;2022-07-29T08:33:41;5.57;;;5.07;;
51214;SDS011;41093;47.444;19.134;2022-07-29T08:36:07;7.57;;;5.03;;
51214;SDS011;41093;47.444;19.134;2022-07-29T08:38:33;5.18;;;4.78;;
51214;SDS011;41093;47.444;19.134;2022-07-29T08:41:02;5.20;;;4.70;;
51214;SDS011;41093;47.444;19.134;2022-07-29T08:43:28;5.28;;;4.88;;
51214;SDS011;41093;47.444;19.134;2022-07-29T08:45:54;5.68;;;5.28;;
51214;SDS011;41093;47.444;19.134;2022-07-29T08:48:23;5.32;;;4.82;;
51214;SDS011;41093;47.444;19.134;2022-07-29T08:50:52;5.65;;;5.05;;
51214;SDS011;41093;47.444;19.134;2022-07-29T08:53:21;5.25;;;4.80;;
51214;SDS011;41093;47.444;19.134;2022-07-29T08:55:49;5.93;;;5.47;;
51214;SDS011;41093;47.444;19.134;2022-07-29T08:58:15;5.80;;;5.30;;
51214;SDS011;41093;47.444;19.134;2022-07-29T09:00:45;5.55;;;5.15;;
51214;SDS011;41093;47.444;19.134;2022-07-29T09:03:17;5.95;;;5.47;;
51214;SDS011;41093;47.444;19.134;2022-07-29T09:05:45;5.87;;;5.40;;
51214;SDS011;41093;47.444;19.134;2022-07-29T09:08:15;6.45;;;5.95;;
51214;SDS011;41093;47.444;19.134;2022-07-29T09:10:42;7.13;;;6.20;;
51214;SDS011;41093;47.444;19.134;2022-07-29T09:13:09;6.50;;;5.90;;
51214;SDS011;41093;47.444;19.134;2022-07-29T09:15:34;6.10;;;5.72;;
51214;SDS011;41093;47.444;19.134;2022-07-29T09:18:00;6.25;;;5.75;;
51214;SDS011;41093;47.444;19.134;2022-07-29T09:20:27;6.00;;;5.60;;
51214;SDS011;41093;47.444;19.134;2022-07-29T09:23:12;6.13;;;5.72;;
51214;SDS011;41093;47.444;19.134;2022-07-29T09:25:39;5.85;;;5.32;;
51214;SDS011;41093;47.444;19.134;2022-07-29T09:28:15;5.88;;;5.38;;
51214;SDS011;41093;47.444;19.134;2022-07-29T09:30:55;6.05;;;5.15;;
51214;SDS011;41093;47.444;19.134;2022-07-29T09:33:22;6.20;;;5.47;;
51214;SDS011;41093;47.444;19.134;2022-07-29T09:35:58;5.40;;;5.10;;
51214;SDS011;41093;47.444;19.134;2022-07-29T09:38:27;4.97;;;4.78;;
51214;SDS011;41093;47.444;19.134;2022-07-29T09:41:00;5.60;;;5.18;;
51214;SDS011;41093;47.444;19.134;2022-07-29T09:43:28;5.80;;;5.30;;
51214;SDS011;41093;47.444;19.134;2022-07-29T09:45:54;5.70;;;5.20;;
51214;SDS011;41093;47.444;19.134;2022-07-29T09:48:23;6.75;;;4.90;;
51214;SDS011;41093;47.444;19.134;2022-07-29T09:50:50;6.18;;;4.53;;
51214;SDS011;41093;47.444;19.134;2022-07-29T09:53:33;4.95;;;4.43;;
51214;SDS011;41093;47.444;19.134;2022-07-29T09:56:01;5.13;;;4.30;;
51214;SDS011;41093;47.444;19.134;2022-07-29T09:58:27;4.40;;;4.20;;
51214;SDS011;41093;47.444;19.134;2022-07-29T10:00:54;4.70;;;4.30;;
51214;SDS011;41093;47.444;19.134;2022-07-29T10:03:20;4.32;;;4.03;;
51214;SDS011;41093;47.444;19.134;2022-07-29T10:06:03;6.80;;;4.45;;
51214;SDS011;41093;47.444;19.134;2022-07-29T10:08:33;5.40;;;4.30;;
51214;SDS011;41093;47.444;19.134;2022-07-29T10:11:15;4.55;;;4.15;;
51214;SDS011;41093;47.444;19.134;2022-07-29T10:13:43;4.35;;;3.95;;
51214;SDS011;41093;47.444;19.134;2022-07-29T10:16:11;4.47;;;4.07;;
51214;SDS011;41093;47.444;19.134;2022-07-29T10:18:39;4.53;;;3.72;;
51214;SDS011;41093;47.444;19.134;2022-07-29T10:21:06;4.03;;;3.75;;
51214;SDS011;41093;47.444;19.134;2022-07-29T10:23:32;4.20;;;3.78;;
51214;SDS011;41093;47.444;19.134;2022-07-29T10:25:59;6.80;;;3.97;;
51214;SDS011;41093;47.444;19.134;2022-07-29T10:28:25;4.18;;;3.88;;
51214;SDS011;41093;47.444;19.134;2022-07-29T10:30:52;5.35;;;4.25;;
51214;SDS011;41093;47.444;19.134;2022-07-29T10:41:45;4.72;;;3.78;;
51214;SDS011;41093;47.444;19.134;2022-07-29T10:46:50;3.47;;;3.28;;
51214;SDS011;41093;47.444;19.134;2022-07-29T10:49:17;3.28;;;3.00;;
51214;SDS011;41093;47.444;19.134;2022-07-29T11:05:03;3.40;;;2.92;;
51214;SDS011;41093;47.444;19.134;2022-07-29T11:07:36;4.35;;;3.00;;
51214;SDS011;41093;47.444;19.134;2022-07-29T11:15:03;3.53;;;3.20;;
51214;SDS011;41093;47.444;19.134;2022-07-29T11:23:29;3.63;;;3.13;;
51214;SDS011;41093;47.444;19.134;2022-07-29T11:39:41;3.88;;;2.70;;
51214;SDS011;41093;47.444;19.134;2022-07-29T11:47:26;3.35;;;3.05;;
51214;SDS011;41093;47.444;19.134;2022-07-29T11:49:54;5.20;;;2.85;;
51214;SDS011;41093;47.444;19.134;2022-07-29T11:52:22;6.28;;;2.95;;
51214;SDS011;41093;47.444;19.134;2022-07-29T11:54:49;6.63;;;3.30;;
51214;SDS011;41093;47.444;19.134;2022-07-29T11:57:16;5.65;;;3.17;;
51214;SDS011;41093;47.444;19.134;2022-07-29T11:59:44;3.47;;;3.05;;
51214;SDS011;41093;47.444;19.134;2022-07-29T12:02:10;4.35;;;3.47;;
51214;SDS011;41093;47.444;19.134;2022-07-29T12:04:52;5.03;;;3.63;;
51214;SDS011;41093;47.444;19.134;2022-07-29T12:07:29;3.40;;;2.95;;
51214;SDS011;41093;47.444;19.134;2022-07-29T12:09:56;4.32;;;3.35;;
51214;SDS011;41093;47.444;19.134;2022-07-29T12:12:22;4.13;;;3.72;;
51214;SDS011;41093;47.444;19.134;2022-07-29T12:14:48;4.10;;;3.63;;
51214;SDS011;41093;47.444;19.134;2022-07-29T12:17:31;4.63;;;3.78;;
51214;SDS011;41093;47.444;19.134;2022-07-29T12:20:00;5.10;;;3.22;;
51214;SDS011;41093;47.444;19.134;2022-07-29T12:22:29;4.05;;;3.08;;
51214;SDS011;41093;47.444;19.134;2022-07-29T12:25:03;3.10;;;2.90;;
51214;SDS011;41093;47.444;19.134;2022-07-29T12:27:34;3.53;;;3.10;;
51214;SDS011;41093;47.444;19.134;2022-07-29T12:30:06;3.63;;;3.33;;
51214;SDS011;41093;47.444;19.134;2022-07-29T12:32:40;3.83;;;3.42;;
51214;SDS011;41093;47.444;19.134;2022-07-29T12:35:12;4.55;;;3.17;;
51214;SDS011;41093;47.444;19.134;2022-07-29T12:37:40;4.25;;;3.38;;
51214;SDS011;41093;47.444;19.134;2022-07-29T12:40:09;3.28;;;3.00;;
51214;SDS011;41093;47.444;19.134;2022-07-29T12:42:37;3.33;;;3.03;;
51214;SDS011;41093;47.444;19.134;2022-07-29T12:45:04;3.53;;;3.20;;
51214;SDS011;41093;47.444;19.134;2022-07-29T12:47:30;3.85;;;3.10;;
51214;SDS011;41093;47.444;19.134;2022-07-29T12:50:10;3.80;;;2.95;;
51214;SDS011;41093;47.444;19.134;2022-07-29T12:52:42;3.70;;;3.35;;
51214;SDS011;41093;47.444;19.134;2022-07-29T12:55:09;3.58;;;3.28;;
51214;SDS011;41093;47.444;19.134;2022-07-29T12:57:45;3.78;;;3.47;;
51214;SDS011;41093;47.444;19.134;2022-07-29T13:00:12;3.58;;;3.30;;
51214;SDS011;41093;47.444;19.134;2022-07-29T13:02:40;3.78;;;3.40;;
51214;SDS011;41093;47.444;19.134;2022-07-29T13:05:07;4.57;;;3.63;;
51214;SDS011;41093;47.444;19.134;2022-07-29T13:07:34;4.30;;;3.70;;
51214;SDS011;41093;47.444;19.134;2022-07-29T13:10:20;4.57;;;3.28;;
51214;SDS011;41093;47.444;19.134;2022-07-29T13:13:09;4.68;;;3.80;;
51214;SDS011;41093;47.444;19.134;2022-07-29T13:15:37;3.75;;;3.42;;
51214;SDS011;41093;47.444;19.134;2022-07-29T13:18:05;4.07;;;3.20;;
51214;SDS011;41093;47.444;19.134;2022-07-29T13:20:51;3.95;;;3.42;;
51214;SDS011;41093;47.444;19.134;2022-07-29T13:23:16;3.67;;;3.38;;
51214;SDS011;41093;47.444;19.134;2022-07-29T13:25:43;3.63;;;3.33;;
51214;SDS011;41093;47.444;19.134;2022-07-29T13:28:09;4.10;;;3.00;;
51214;SDS011;41093;47.444;19.134;2022-07-29T13:30:36;3.65;;;3.35;;
51214;SDS011;41093;47.444;19.134;2022-07-29T13:33:03;3.35;;;3.05;;
51214;SDS011;41093;47.444;19.134;2022-07-29T13:35:29;3.83;;;3.53;;
51214;SDS011;41093;47.444;19.134;2022-07-29T13:37:54;7.18;;;3.50;;
51214;SDS011;41093;47.444;19.134;2022-07-29T13:40:20;3.67;;;3.38;;
51214;SDS011;41093;47.444;19.134;2022-07-29T13:42:46;4.25;;;3.85;;
51214;SDS011;41093;47.444;19.134;2022-07-29T13:45:12;3.78;;;3.47;;
51214;SDS011;41093;47.444;19.134;2022-07-29T13:47:38;4.45;;;3.30;;
51214;SDS011;41093;47.444;19.134;2022-07-29T13:50:05;3.45;;;3.08;;
51214;SDS011;41093;47.444;19.134;2022-07-29T13:52:32;3.78;;;3.20;;
51214;SDS011;41093;47.444;19.134;2022-07-29T13:54:58;3.90;;;3.60;;
51214;SDS011;41093;47.444;19.134;2022-07-29T13:57:24;4.32;;;3.63;;
51214;SDS011;41093;47.444;19.134;2022-07-29T13:59:50;3.90;;;3.50;;
51214;SDS011;41093;47.444;19.134;2022-07-29T14:02:16;3.75;;;3.45;;
51214;SDS011;41093;47.444;19.134;2022-07-29T14:04:42;4.93;;;4.05;;
51214;SDS011;41093;47.444;19.134;2022-07-29T14:07:08;4.38;;;3.38;;
51214;SDS011;41093;47.444;19.134;2022-07-29T14:09:35;3.58;;;3.28;;
51214;SDS011;41093;47.444;19.134;2022-07-29T14:12:01;4.13;;;3.35;;
51214;SDS011;41093;47.444;19.134;2022-07-29T14:14:27;3.35;;;2.90;;
51214;SDS011;41093;47.444;19.134;2022-07-29T14:16:54;4.05;;;3.58;;
51214;SDS011;41093;47.444;19.134;2022-07-29T14:19:20;4.13;;;3.55;;
51214;SDS011;41093;47.444;19.134;2022-07-29T14:21:45;3.60;;;3.30;;
51214;SDS011;41093;47.444;19.134;2022-07-29T14:24:11;3.55;;;3.25;;
51214;SDS011;41093;47.444;19.134;2022-07-29T14:26:37;3.97;;;3.55;;
51214;SDS011;41093;47.444;19.134;2022-07-29T14:29:03;6.10;;;3.72;;
51214;SDS011;41093;47.444;19.134;2022-07-29T14:31:28;3.63;;;3.30;;
51214;SDS011;41093;47.444;19.134;2022-07-29T14:33:54;4.30;;;3.92;;
51214;SDS011;41093;47.444;19.134;2022-07-29T14:36:20;3.45;;;3.25;;
51214;SDS011;41093;47.444;19.134;2022-07-29T14:38:45;3.67;;;3.38;;
51214;SDS011;41093;47.444;19.134;2022-07-29T14:41:11;3.70;;;3.40;;
51214;SDS011;41093;47.444;19.134;2022-07-29T14:43:37;4.10;;;3.55;;
51214;SDS011;41093;47.444;19.134;2022-07-29T14:46:03;4.07;;;3.53;;
51214;SDS011;41093;47.444;19.134;2022-07-29T14:48:28;3.78;;;3.30;;
51214;SDS011;41093;47.444;19.134;2022-07-29T14:50:54;3.67;;;3.20;;
51214;SDS011;41093;47.444;19.134;2022-07-29T14:53:21;3.63;;;3.33;;
51214;SDS011;41093;47.444;19.134;2022-07-29T14:55:47;4.18;;;3.70;;
51214;SDS011;41093;47.444;19.134;2022-07-29T14:58:14;6.13;;;3.42;;
51214;SDS011;41093;47.444;19.134;2022-07-29T15:00:40;3.60;;;3.30;;
51214;SDS011;41093;47.444;19.134;2022-07-29T15:03:05;4.10;;;3.38;;
51214;SDS011;41093;47.444;19.134;2022-07-29T15:05:34;3.70;;;3.40;;
51214;SDS011;41093;47.444;19.134;2022-07-29T15:08:00;3.83;;;3.50;;
51214;SDS011;41093;47.444;19.134;2022-07-29T15:10:25;4.00;;;3.60;;
51214;SDS011;41093;47.444;19.134;2022-07-29T15:12:52;5.25;;;3.25;;
51214;SDS011;41093;47.444;19.134;2022-07-29T15:15:18;3.90;;;3.60;;
51214;SDS011;41093;47.444;19.134;2022-07-29T15:17:44;3.92;;;3.63;;
51214;SDS011;41093;47.444;19.134;2022-07-29T15:20:10;4.57;;;3.65;;
51214;SDS011;41093;47.444;19.134;2022-07-29T15:22:36;4.00;;;3.58;;
51214;SDS011;41093;47.444;19.134;2022-07-29T15:25:03;5.57;;;3.58;;
51214;SDS011;41093;47.444;19.134;2022-07-29T15:27:30;4.57;;;3.53;;
51214;SDS011;41093;47.444;19.134;2022-07-29T15:29:56;3.80;;;3.35;;
51214;SDS011;41093;47.444;19.134;2022-07-29T15:32:21;5.18;;;4.18;;
51214;SDS011;41093;47.444;19.134;2022-07-29T15:34:47;5.50;;;3.78;;
51214;SDS011;41093;47.444;19.134;2022-07-29T15:37:13;3.40;;;3.17;;
51214;SDS011;41093;47.444;19.134;2022-07-29T15:39:39;7.80;;;4.00;;
51214;SDS011;41093;47.444;19.134;2022-07-29T15:42:05;4.43;;;3.25;;
51214;SDS011;41093;47.444;19.134;2022-07-29T15:44:30;5.28;;;3.60;;
51214;SDS011;41093;47.444;19.134;2022-07-29T15:46:56;4.28;;;3.70;;